Terminal Aerodrome Forecast
Issued by NWS

Home | Current Version | Previous Version | Text Only | Print | Product List | Glossary On
Versions: 1 2 3 4 5 6 7 8 9 10 11 12 13 14
000
FTUS41 KBTV 011100
TAFSLK
TAF
KSLK 011120Z 0112/0212 00000KT 1/4SM FG VV001
     FM011300 VRB03KT 2SM BR BKN003
     FM011400 05004KT P6SM BKN025
     FM020000 VRB02KT 6SM BR SCT020
     FM020400 00000KT 2SM BR SCT002=

USA.gov is the U.S. government's official web portal to all federal, state and local government web resources and services.